createdAt,value
2023-01-07T00:00:20.991Z,100485.72
2023-01-07T00:01:09.203Z,100491.78
2023-01-07T00:01:56.072Z,100491.25
2023-01-07T00:02:42.989Z,100487.84
2023-01-07T00:03:30.463Z,100484.47
2023-01-07T00:04:17.482Z,100492.19
2023-01-07T00:05:04.514Z,100494.25
2023-01-07T00:05:51.404Z,100498.41
2023-01-07T00:06:40.407Z,100498.28
2023-01-07T00:07:27.334Z,100488.78
2023-01-07T00:08:14.265Z,100500.72
2023-01-07T00:09:01.443Z,100502.16
2023-01-07T00:09:48.267Z,100498.34
2023-01-07T00:10:35.880Z,100503.00
2023-01-07T00:11:30.189Z,100497.31
2023-01-07T00:12:17.023Z,100502.25
2023-01-07T00:13:03.943Z,100506.03
2023-01-07T00:13:52.912Z,100504.06
2023-01-07T00:14:39.764Z,100502.31
2023-01-07T00:15:26.711Z,100503.62
2023-01-07T00:16:17.312Z,100507.03
2023-01-07T00:17:04.043Z,100506.44
2023-01-07T00:17:50.922Z,100500.12
2023-01-07T00:18:37.951Z,100504.34
2023-01-07T00:19:24.879Z,100510.50
2023-01-07T00:20:12.003Z,100504.53
2023-01-07T00:21:00.100Z,100506.78
2023-01-07T00:21:46.958Z,100507.09
2023-01-07T00:22:33.817Z,100501.78
2023-01-07T00:23:21.920Z,100506.75
2023-01-07T00:24:11.390Z,100501.78
2023-01-07T00:24:58.283Z,100511.37
2023-01-07T00:25:45.181Z,100506.47
2023-01-07T00:26:34.422Z,100508.81
2023-01-07T00:27:21.351Z,100506.47
2023-01-07T00:28:08.283Z,100515.44
2023-01-07T00:28:55.247Z,100510.09
2023-01-07T00:29:42.075Z,100515.81
2023-01-07T00:30:28.932Z,100511.13
2023-01-07T00:31:25.161Z,100507.34
2023-01-07T00:32:12.197Z,100509.13
2023-01-07T00:33:06.330Z,100518.44
2023-01-07T00:33:59.468Z,100513.75
2023-01-07T00:34:46.363Z,100514.81
2023-01-07T00:35:39.095Z,100512.28
2023-01-07T00:36:30.982Z,100512.31
2023-01-07T00:37:37.775Z,100516.69
2023-01-07T00:38:24.633Z,100514.53
2023-01-07T00:39:19.943Z,100516.09
2023-01-07T00:40:07.431Z,100519.69
2023-01-07T00:40:54.457Z,100517.53
2023-01-07T00:42:01.367Z,100514.44
2023-01-07T00:43:05.273Z,100512.25
2023-01-07T00:43:52.316Z,100514.97
2023-01-07T00:44:39.305Z,100504.97
2023-01-07T00:45:26.156Z,100509.91
2023-01-07T00:46:14.566Z,100507.13
2023-01-07T00:47:01.661Z,100509.88
2023-01-07T00:47:49.372Z,100504.28
2023-01-07T00:48:36.252Z,100513.41
2023-01-07T00:49:24.698Z,100515.53
2023-01-07T00:50:11.612Z,100513.59
2023-01-07T00:50:58.447Z,100513.53
2023-01-07T00:51:45.269Z,100510.47
2023-01-07T00:52:32.214Z,100519.91
2023-01-07T00:53:19.385Z,100517.09
2023-01-07T00:54:06.264Z,100521.44
2023-01-07T00:54:53.134Z,100515.63
2023-01-07T00:55:40.317Z,100516.78
2023-01-07T00:56:27.254Z,100518.50
2023-01-07T00:57:14.231Z,100518.34
2023-01-07T00:58:01.083Z,100516.72
2023-01-07T00:58:47.968Z,100519.09
2023-01-07T00:59:34.836Z,100517.91
2023-01-07T01:00:23.523Z,100516.19
2023-01-07T01:01:11.276Z,100513.84
2023-01-07T01:01:58.282Z,100515.97
2023-01-07T01:02:45.815Z,100515.44
2023-01-07T01:03:33.705Z,100515.63
2023-01-07T01:04:20.573Z,100508.09
2023-01-07T01:05:07.965Z,100512.53
2023-01-07T01:05:55.317Z,100516.22
2023-01-07T01:06:42.267Z,100513.38
2023-01-07T01:07:29.122Z,100520.03
2023-01-07T01:08:16.064Z,100518.06
2023-01-07T01:09:02.943Z,100520.88
2023-01-07T01:09:50.031Z,100519.91
2023-01-07T01:10:36.952Z,100524.22
2023-01-07T01:11:23.807Z,100522.97
2023-01-07T01:12:10.713Z,100520.09
2023-01-07T01:12:57.602Z,100526.47
2023-01-07T01:13:46.427Z,100523.12
2023-01-07T01:14:33.273Z,100523.84
2023-01-07T01:15:20.203Z,100521.56
2023-01-07T01:16:12.500Z,100525.63
2023-01-07T01:16:59.483Z,100526.56
2023-01-07T01:17:46.496Z,100522.34
2023-01-07T01:18:33.337Z,100524.31
2023-01-07T01:19:20.335Z,100523.50
2023-01-07T01:20:09.326Z,100533.38
2023-01-07T01:20:56.285Z,100525.94
2023-01-07T01:21:43.160Z,100528.87
2023-01-07T01:22:30.232Z,100534.41
2023-01-07T01:23:17.218Z,100534.22
2023-01-07T01:24:04.297Z,100526.91
2023-01-07T01:24:51.543Z,100528.41
2023-01-07T01:25:38.411Z,100531.72
2023-01-07T01:26:25.512Z,100527.78
2023-01-07T01:27:12.346Z,100529.34
2023-01-07T01:27:59.212Z,100529.78
2023-01-07T01:28:46.162Z,100532.19
2023-01-07T01:29:33.032Z,100525.44
2023-01-07T01:30:19.906Z,100531.09
2023-01-07T01:31:08.604Z,100526.09
2023-01-07T01:31:55.511Z,100524.81
2023-01-07T01:32:42.387Z,100522.81
2023-01-07T01:33:29.343Z,100517.78
2023-01-07T01:34:16.253Z,100525.69
2023-01-07T01:35:03.206Z,100525.69
2023-01-07T01:35:50.023Z,100530.16
2023-01-07T01:36:37.353Z,100525.41
2023-01-07T01:37:24.637Z,100523.22
2023-01-07T01:38:11.502Z,100525.50
2023-01-07T01:38:58.380Z,100527.06
2023-01-07T01:39:45.339Z,100528.59
2023-01-07T01:40:32.247Z,100520.62
2023-01-07T01:41:19.209Z,100527.63
2023-01-07T01:42:06.341Z,100529.13
2023-01-07T01:42:53.190Z,100521.81
2023-01-07T01:43:41.694Z,100514.44
2023-01-07T01:44:40.448Z,100528.00
2023-01-07T01:45:27.431Z,100528.09
2023-01-07T01:46:34.452Z,100524.59
2023-01-07T01:47:35.421Z,100514.31
2023-01-07T01:48:22.123Z,100521.66
2023-01-07T01:49:28.762Z,100521.66
2023-01-07T01:50:31.555Z,100517.44
2023-01-07T01:51:20.700Z,100518.81
2023-01-07T01:52:10.882Z,100522.25
2023-01-07T01:53:14.505Z,100526.84
2023-01-07T01:54:04.901Z,100528.34
2023-01-07T01:54:56.569Z,100520.78
2023-01-07T01:55:46.844Z,100522.47
2023-01-07T01:56:36.915Z,100519.66
2023-01-07T01:57:25.936Z,100520.78
2023-01-07T01:58:24.572Z,100521.87
2023-01-07T01:59:15.952Z,100520.41
2023-01-07T02:00:04.224Z,100521.09
2023-01-07T02:00:51.830Z,100519.03
2023-01-07T02:01:38.968Z,100512.94
2023-01-07T02:02:32.889Z,100512.81
2023-01-07T02:03:21.930Z,100514.97
2023-01-07T02:04:12.687Z,100509.06
2023-01-07T02:04:59.933Z,100510.66
2023-01-07T02:05:47.077Z,100514.22
2023-01-07T02:06:34.863Z,100512.66
2023-01-07T02:07:21.926Z,100506.41
2023-01-07T02:08:09.567Z,100505.28
2023-01-07T02:08:56.439Z,100497.53
2023-01-07T02:09:43.469Z,100503.06
2023-01-07T02:10:32.021Z,100502.22
2023-01-07T02:11:48.103Z,100502.59
2023-01-07T02:12:58.157Z,100493.03
2023-01-07T02:14:09.302Z,100494.19
2023-01-07T02:15:27.725Z,100489.50
2023-01-07T02:16:43.359Z,100491.66
2023-01-07T02:17:54.456Z,100492.31
2023-01-07T02:18:41.126Z,100487.84
2023-01-07T02:19:55.263Z,100484.09
2023-01-07T02:21:01.233Z,100484.09
2023-01-07T02:22:04.762Z,100480.28
2023-01-07T02:23:29.370Z,100481.53
2023-01-07T02:24:49.766Z,100480.38
2023-01-07T02:25:42.212Z,100471.06
2023-01-07T02:26:40.804Z,100474.03
2023-01-07T02:27:57.131Z,100473.44
2023-01-07T02:28:55.853Z,100469.38
2023-01-07T02:30:03.465Z,100474.31
2023-01-07T02:31:24.331Z,100477.94
2023-01-07T02:32:38.768Z,100481.97
2023-01-07T02:33:36.876Z,100478.81
2023-01-07T02:34:57.924Z,100483.66
2023-01-07T02:35:59.692Z,100472.84
2023-01-07T02:37:02.622Z,100481.06
2023-01-07T02:38:23.614Z,100479.50
2023-01-07T02:39:35.072Z,100478.91
2023-01-07T02:40:51.437Z,100477.94
2023-01-07T02:42:02.354Z,100475.59
2023-01-07T02:43:12.702Z,100474.78
2023-01-07T02:44:05.565Z,100472.44
2023-01-07T02:45:02.853Z,100477.53
2023-01-07T02:46:18.763Z,100469.38
2023-01-07T02:47:12.483Z,100469.53
2023-01-07T02:48:08.003Z,100472.91
2023-01-07T02:48:54.904Z,100472.47
2023-01-07T02:49:41.807Z,100470.19
2023-01-07T02:50:28.747Z,100475.81
2023-01-07T02:51:15.693Z,100472.53
2023-01-07T02:52:25.753Z,100469.56
2023-01-07T02:53:15.663Z,100467.47
2023-01-07T02:54:02.752Z,100472.88
2023-01-07T02:55:06.182Z,100473.38
2023-01-07T02:56:07.249Z,100472.25
2023-01-07T02:57:02.932Z,100466.41
2023-01-07T02:58:15.582Z,100476.03
2023-01-07T02:59:11.678Z,100471.03
2023-01-07T03:00:09.906Z,100467.84
2023-01-07T03:01:10.554Z,100467.84
2023-01-07T03:02:19.656Z,100462.81
2023-01-07T03:03:34.122Z,100464.19
2023-01-07T03:04:51.955Z,100476.63
2023-01-07T03:05:44.977Z,100473.31
2023-01-07T03:07:04.316Z,100463.84
2023-01-07T03:08:32.658Z,100478.41
2023-01-07T03:09:32.973Z,100470.19
2023-01-07T03:10:45.953Z,100475.66
2023-01-07T03:11:38.056Z,100472.16
2023-01-07T03:12:36.872Z,100473.03
2023-01-07T03:13:26.289Z,100475.06
2023-01-07T03:14:27.080Z,100478.47
2023-01-07T03:15:13.783Z,100473.22
2023-01-07T03:16:05.547Z,100471.22
2023-01-07T03:16:58.791Z,100469.41
2023-01-07T03:18:03.319Z,100469.97
2023-01-07T03:18:56.463Z,100469.41
2023-01-07T03:19:46.228Z,100472.31
2023-01-07T03:20:35.823Z,100467.94
2023-01-07T03:21:24.004Z,100468.31
2023-01-07T03:22:11.083Z,100465.28
2023-01-07T03:22:58.715Z,100467.22
2023-01-07T03:23:49.782Z,100469.41
2023-01-07T03:24:36.727Z,100468.56
2023-01-07T03:25:24.892Z,100463.94
2023-01-07T03:26:12.264Z,100473.16
2023-01-07T03:27:01.333Z,100467.00
2023-01-07T03:27:50.753Z,100470.87
2023-01-07T03:28:41.645Z,100465.53
2023-01-07T03:29:28.862Z,100473.66
2023-01-07T03:30:17.671Z,100462.00
2023-01-07T03:31:05.343Z,100470.63
2023-01-07T03:32:04.815Z,100473.41
2023-01-07T03:33:00.752Z,100469.78
2023-01-07T03:33:55.002Z,100469.16
2023-01-07T03:34:43.241Z,100473.66
2023-01-07T03:35:32.102Z,100468.94
2023-01-07T03:36:23.434Z,100469.62
2023-01-07T03:37:20.211Z,100473.88
2023-01-07T03:38:08.402Z,100474.03
2023-01-07T03:38:55.727Z,100475.34
2023-01-07T03:39:44.193Z,100477.16
2023-01-07T03:40:31.867Z,100472.94
2023-01-07T03:41:45.253Z,100472.09
2023-01-07T03:42:41.547Z,100471.09
2023-01-07T03:43:28.364Z,100474.87
2023-01-07T03:44:15.204Z,100471.78
2023-01-07T03:45:02.085Z,100474.81
2023-01-07T03:45:49.528Z,100469.53
2023-01-07T03:46:37.159Z,100467.19
2023-01-07T03:47:24.063Z,100475.06
2023-01-07T03:48:10.926Z,100477.75
2023-01-07T03:48:57.885Z,100468.91
2023-01-07T03:49:44.847Z,100475.44
2023-01-07T03:50:31.704Z,100476.12
2023-01-07T03:51:18.615Z,100476.16
2023-01-07T03:52:05.701Z,100469.47
2023-01-07T03:52:52.653Z,100475.34
2023-01-07T03:53:39.536Z,100464.13
2023-01-07T03:54:26.430Z,100465.97
2023-01-07T03:55:13.323Z,100469.38
2023-01-07T03:56:00.192Z,100463.91
2023-01-07T03:56:47.297Z,100467.06
2023-01-07T03:57:34.310Z,100467.37
2023-01-07T03:58:21.292Z,100465.09
2023-01-07T03:59:08.207Z,100469.84
2023-01-07T03:59:55.103Z,100463.78
2023-01-07T04:00:41.964Z,100469.50
2023-01-07T04:01:29.023Z,100467.28
2023-01-07T04:02:16.001Z,100470.19
2023-01-07T04:03:02.895Z,100466.78
2023-01-07T04:03:49.822Z,100476.12
2023-01-07T04:04:36.849Z,100477.19
2023-01-07T04:05:23.762Z,100471.00
2023-01-07T04:06:10.713Z,100469.56
2023-01-07T04:06:57.582Z,100466.53
2023-01-07T04:07:44.527Z,100479.09
2023-01-07T04:08:31.403Z,100476.50
2023-01-07T04:09:22.233Z,100474.50
2023-01-07T04:10:09.747Z,100476.16
2023-01-07T04:10:56.657Z,100473.50
2023-01-07T04:11:43.522Z,100476.81
2023-01-07T04:12:30.413Z,100475.00
2023-01-07T04:13:17.267Z,100477.47
2023-01-07T04:14:04.211Z,100473.88
2023-01-07T04:14:51.042Z,100480.78
2023-01-07T04:15:37.931Z,100489.50
2023-01-07T04:16:24.796Z,100483.97
2023-01-07T04:17:12.209Z,100471.78
2023-01-07T04:17:59.043Z,100478.56
2023-01-07T04:18:45.996Z,100482.31
2023-01-07T04:19:33.521Z,100482.50
2023-01-07T04:20:20.425Z,100478.81
2023-01-07T04:21:07.333Z,100478.81
2023-01-07T04:21:54.243Z,100476.88
2023-01-07T04:22:41.148Z,100473.59
2023-01-07T04:23:28.000Z,100474.87
2023-01-07T04:24:14.931Z,100475.59
2023-01-07T04:25:01.887Z,100482.38
2023-01-07T04:25:49.673Z,100476.50
2023-01-07T04:26:36.633Z,100477.63
2023-01-07T04:27:23.492Z,100474.72
2023-01-07T04:28:10.334Z,100477.31
2023-01-07T04:28:57.264Z,100475.03
2023-01-07T04:29:44.134Z,100477.97
2023-01-07T04:30:31.140Z,100476.69
2023-01-07T04:31:18.120Z,100480.13
2023-01-07T04:32:05.279Z,100479.34
2023-01-07T04:32:52.311Z,100478.50
2023-01-07T04:33:39.204Z,100474.66
2023-01-07T04:34:26.189Z,100472.72
2023-01-07T04:35:13.071Z,100477.16
2023-01-07T04:36:00.283Z,100481.63
2023-01-07T04:36:47.182Z,100481.31
2023-01-07T04:37:34.031Z,100475.16
2023-01-07T04:38:20.896Z,100471.81
2023-01-07T04:39:07.815Z,100471.25
2023-01-07T04:39:54.633Z,100476.31
2023-01-07T04:40:41.592Z,100469.41
2023-01-07T04:41:28.486Z,100471.44
2023-01-07T04:42:15.364Z,100474.84
2023-01-07T04:43:02.273Z,100474.75
2023-01-07T04:43:49.113Z,100474.75
2023-01-07T04:44:36.044Z,100474.13
2023-01-07T04:45:22.924Z,100477.16
2023-01-07T04:46:09.880Z,100480.53
2023-01-07T04:46:56.772Z,100481.91
2023-01-07T04:47:43.655Z,100476.97
2023-01-07T04:48:31.114Z,100483.78
2023-01-07T04:49:18.075Z,100478.03
2023-01-07T04:50:05.280Z,100472.88
2023-01-07T04:50:52.206Z,100482.13
2023-01-07T04:51:39.191Z,100477.63
2023-01-07T04:52:26.083Z,100478.13
2023-01-07T04:53:12.913Z,100476.59
2023-01-07T04:53:59.892Z,100477.53
2023-01-07T04:54:46.750Z,100478.81
2023-01-07T04:55:33.663Z,100480.56
2023-01-07T04:56:20.474Z,100475.78
2023-01-07T04:57:07.334Z,100475.84
2023-01-07T04:57:54.224Z,100472.69
2023-01-07T04:58:42.016Z,100476.44
2023-01-07T04:59:28.822Z,100473.47
2023-01-07T05:00:16.030Z,100479.53
2023-01-07T05:01:07.239Z,100479.66
2023-01-07T05:01:54.300Z,100476.03
2023-01-07T05:02:41.346Z,100481.72
2023-01-07T05:03:28.300Z,100479.66
2023-01-07T05:04:15.308Z,100479.03
2023-01-07T05:05:02.274Z,100478.84
2023-01-07T05:05:49.162Z,100483.19
2023-01-07T05:06:36.013Z,100477.56
2023-01-07T05:07:22.925Z,100482.44
2023-01-07T05:08:09.823Z,100477.44
2023-01-07T05:08:56.775Z,100476.81
2023-01-07T05:09:43.623Z,100476.41
2023-01-07T05:10:30.603Z,100477.78
2023-01-07T05:11:21.880Z,100477.87
2023-01-07T05:12:08.839Z,100475.44
2023-01-07T05:12:55.723Z,100477.59
2023-01-07T05:13:42.624Z,100486.06
2023-01-07T05:14:29.502Z,100479.34
2023-01-07T05:15:16.392Z,100478.50
2023-01-07T05:16:03.990Z,100488.63
2023-01-07T05:16:51.025Z,100484.50
2023-01-07T05:17:37.974Z,100489.41
2023-01-07T05:18:24.808Z,100486.31
2023-01-07T05:19:12.213Z,100485.75
2023-01-07T05:19:59.139Z,100488.50
2023-01-07T05:20:47.802Z,100481.91
2023-01-07T05:21:34.692Z,100482.53
2023-01-07T05:22:21.573Z,100482.44
2023-01-07T05:23:08.528Z,100487.16
2023-01-07T05:23:55.402Z,100484.84
2023-01-07T05:24:42.273Z,100488.56
2023-01-07T05:25:29.142Z,100485.59
2023-01-07T05:26:16.097Z,100485.38
2023-01-07T05:27:03.044Z,100485.38
2023-01-07T05:27:49.941Z,100484.41
2023-01-07T05:28:36.795Z,100485.13
2023-01-07T05:29:23.653Z,100494.16
2023-01-07T05:30:10.922Z,100490.69
2023-01-07T05:30:57.820Z,100495.47
2023-01-07T05:31:44.734Z,100491.19
2023-01-07T05:32:31.603Z,100484.72
2023-01-07T05:33:18.675Z,100492.94
2023-01-07T05:34:05.549Z,100495.69
2023-01-07T05:34:52.494Z,100488.66
2023-01-07T05:35:39.435Z,100484.06
2023-01-07T05:36:26.306Z,100492.81
2023-01-07T05:37:13.219Z,100492.81
2023-01-07T05:38:00.144Z,100493.34
2023-01-07T05:38:47.052Z,100489.59
2023-01-07T05:39:33.988Z,100484.50
2023-01-07T05:40:20.824Z,100488.88
2023-01-07T05:41:08.996Z,100487.28
2023-01-07T05:41:55.855Z,100492.09
2023-01-07T05:42:42.786Z,100491.75
2023-01-07T05:43:29.755Z,100491.94
2023-01-07T05:44:16.611Z,100487.50
2023-01-07T05:45:04.123Z,100484.09
2023-01-07T05:45:50.983Z,100484.53
2023-01-07T05:46:37.873Z,100486.97
2023-01-07T05:47:24.751Z,100481.66
2023-01-07T05:48:12.329Z,100482.59
2023-01-07T05:48:59.254Z,100483.44
2023-01-07T05:49:46.083Z,100478.66
2023-01-07T05:50:32.983Z,100481.13
2023-01-07T05:51:20.192Z,100491.75
2023-01-07T05:52:07.123Z,100491.53
2023-01-07T05:52:53.964Z,100488.13
2023-01-07T05:53:40.780Z,100485.16
2023-01-07T05:54:27.663Z,100486.88
2023-01-07T05:55:14.565Z,100492.69
2023-01-07T05:56:01.615Z,100491.94
2023-01-07T05:56:48.451Z,100493.66
2023-01-07T05:57:35.436Z,100498.03
2023-01-07T05:58:22.255Z,100486.12
2023-01-07T05:59:09.520Z,100497.19
2023-01-07T05:59:56.360Z,100498.03
2023-01-07T06:00:43.250Z,100494.09
2023-01-07T06:01:30.172Z,100490.47
2023-01-07T06:02:18.011Z,100485.34
2023-01-07T06:03:05.456Z,100484.06
2023-01-07T06:03:52.339Z,100485.28
2023-01-07T06:04:39.262Z,100484.94
2023-01-07T06:05:26.428Z,100489.94
2023-01-07T06:06:13.318Z,100486.53
2023-01-07T06:07:01.495Z,100485.28
2023-01-07T06:07:48.647Z,100485.78
2023-01-07T06:08:36.640Z,100483.56
2023-01-07T06:09:23.555Z,100482.62
2023-01-07T06:10:11.367Z,100488.56
2023-01-07T06:10:58.240Z,100484.63
2023-01-07T06:11:45.305Z,100479.94
2023-01-07T06:12:32.300Z,100479.72
2023-01-07T06:13:19.124Z,100488.25
2023-01-07T06:14:06.016Z,100488.34
2023-01-07T06:14:52.936Z,100483.44
2023-01-07T06:15:39.836Z,100482.47
2023-01-07T06:16:26.759Z,100486.22
2023-01-07T06:17:13.639Z,100489.00
2023-01-07T06:18:00.517Z,100483.38
2023-01-07T06:18:47.387Z,100488.44
2023-01-07T06:19:34.236Z,100484.53
2023-01-07T06:20:21.111Z,100487.19
2023-01-07T06:21:08.053Z,100489.19
2023-01-07T06:21:54.965Z,100482.38
2023-01-07T06:22:43.324Z,100492.50
2023-01-07T06:23:31.515Z,100492.28
2023-01-07T06:24:18.425Z,100496.44
2023-01-07T06:25:05.672Z,100489.59
2023-01-07T06:25:52.695Z,100485.47
2023-01-07T06:26:39.612Z,100494.09
2023-01-07T06:27:26.503Z,100486.62
2023-01-07T06:28:13.517Z,100484.63
2023-01-07T06:29:00.400Z,100486.94
2023-01-07T06:29:47.253Z,100488.03
2023-01-07T06:30:34.172Z,100490.69
2023-01-07T06:31:21.207Z,100493.03
2023-01-07T06:32:09.013Z,100488.56
2023-01-07T06:32:55.893Z,100483.12
2023-01-07T06:33:42.807Z,100492.41
2023-01-07T06:34:29.678Z,100485.78
2023-01-07T06:35:16.572Z,100496.34
2023-01-07T06:36:04.614Z,100487.81
2023-01-07T06:36:51.528Z,100483.88
2023-01-07T06:37:38.955Z,100483.03
2023-01-07T06:38:25.824Z,100488.13
2023-01-07T06:39:12.784Z,100490.78
2023-01-07T06:39:59.725Z,100491.19
2023-01-07T06:40:46.533Z,100490.03
2023-01-07T06:41:33.514Z,100492.16
2023-01-07T06:42:20.488Z,100485.75
2023-01-07T06:43:07.332Z,100484.81
2023-01-07T06:43:54.299Z,100499.41
2023-01-07T06:44:41.285Z,100490.28
2023-01-07T06:45:28.209Z,100500.47
2023-01-07T06:46:15.064Z,100491.53
2023-01-07T06:47:02.003Z,100500.59
2023-01-07T06:47:48.930Z,100495.25
2023-01-07T06:48:35.776Z,100496.75
2023-01-07T06:49:22.646Z,100498.22
2023-01-07T06:50:10.168Z,100494.94
2023-01-07T06:50:56.984Z,100494.41
2023-01-07T06:51:43.958Z,100497.28
2023-01-07T06:52:30.888Z,100496.53
2023-01-07T06:53:17.803Z,100501.84
2023-01-07T06:54:04.773Z,100497.38
2023-01-07T06:54:51.634Z,100502.06
2023-01-07T06:55:38.643Z,100500.81
2023-01-07T06:56:25.544Z,100494.19
2023-01-07T06:57:12.533Z,100497.59
2023-01-07T06:57:59.544Z,100503.34
2023-01-07T06:58:46.444Z,100496.97
2023-01-07T06:59:33.273Z,100500.56
2023-01-07T07:00:20.177Z,100501.97
2023-01-07T07:01:08.262Z,100500.06
2023-01-07T07:01:55.405Z,100498.88
2023-01-07T07:02:42.380Z,100501.31
2023-01-07T07:03:29.242Z,100503.75
2023-01-07T07:04:16.106Z,100505.22
2023-01-07T07:05:03.104Z,100501.19
2023-01-07T07:05:50.014Z,100505.00
2023-01-07T07:06:36.946Z,100503.50
2023-01-07T07:07:23.848Z,100500.12
2023-01-07T07:08:11.552Z,100503.50
2023-01-07T07:08:58.503Z,100507.78
2023-01-07T07:09:46.964Z,100504.63
2023-01-07T07:10:34.116Z,100508.84
2023-01-07T07:11:20.983Z,100504.47
2023-01-07T07:12:08.294Z,100500.12
2023-01-07T07:12:55.166Z,100505.34
2023-01-07T07:13:42.113Z,100506.28
2023-01-07T07:14:29.007Z,100508.50
2023-01-07T07:15:15.963Z,100504.44
2023-01-07T07:16:02.973Z,100509.66
2023-01-07T07:16:49.883Z,100505.91
2023-01-07T07:17:36.801Z,100510.19
2023-01-07T07:18:23.692Z,100511.37
2023-01-07T07:19:10.533Z,100506.56
2023-01-07T07:19:57.539Z,100504.53
2023-01-07T07:20:46.713Z,100506.13
2023-01-07T07:21:33.553Z,100507.53
2023-01-07T07:22:20.372Z,100509.72
2023-01-07T07:23:07.258Z,100506.31
2023-01-07T07:23:54.136Z,100504.63
2023-01-07T07:24:40.987Z,100509.75
2023-01-07T07:25:28.047Z,100510.06
2023-01-07T07:26:15.089Z,100512.28
2023-01-07T07:27:02.005Z,100512.06
2023-01-07T07:27:48.875Z,100508.34
2023-01-07T07:28:36.193Z,100505.22
2023-01-07T07:29:23.154Z,100500.75
2023-01-07T07:30:10.601Z,100511.16
2023-01-07T07:30:57.933Z,100512.88
2023-01-07T07:31:44.823Z,100505.28
2023-01-07T07:32:31.689Z,100505.37
2023-01-07T07:33:19.676Z,100511.25
2023-01-07T07:34:06.983Z,100505.53
2023-01-07T07:34:53.993Z,100505.88
2023-01-07T07:35:41.072Z,100508.78
2023-01-07T07:36:28.026Z,100512.28
2023-01-07T07:37:14.911Z,100514.94
2023-01-07T07:38:01.745Z,100503.41
2023-01-07T07:38:48.583Z,100507.22
2023-01-07T07:39:35.471Z,100506.47
2023-01-07T07:40:22.468Z,100506.59
2023-01-07T07:41:09.343Z,100509.88
2023-01-07T07:41:56.232Z,100502.63
2023-01-07T07:43:11.455Z,100502.56
2023-01-07T07:43:49.936Z,100498.47
2023-01-07T07:44:36.792Z,100503.50
2023-01-07T07:45:23.683Z,100512.31
2023-01-07T07:46:10.627Z,100512.31
2023-01-07T07:46:57.656Z,100505.50
2023-01-07T07:47:44.552Z,100506.03
2023-01-07T07:48:31.445Z,100506.47
2023-01-07T07:49:18.302Z,100511.09
2023-01-07T07:50:05.593Z,100506.88
2023-01-07T07:50:52.740Z,100506.78
2023-01-07T07:51:39.588Z,100505.84
2023-01-07T07:52:26.464Z,100501.87
2023-01-07T07:53:14.230Z,100508.44
2023-01-07T07:54:01.157Z,100505.78
2023-01-07T07:54:48.023Z,100500.94
2023-01-07T07:55:34.876Z,100513.66
2023-01-07T07:56:21.712Z,100513.12
2023-01-07T07:57:08.647Z,100506.50
2023-01-07T07:57:56.641Z,100498.81
2023-01-07T07:58:43.563Z,100502.81
2023-01-07T07:59:30.780Z,100513.22
2023-01-07T08:00:17.692Z,100502.56
2023-01-07T08:01:04.794Z,100513.72
2023-01-07T08:01:51.831Z,100503.31
2023-01-07T08:02:38.654Z,100500.19
2023-01-07T08:03:25.705Z,100499.44
2023-01-07T08:04:12.602Z,100508.09
2023-01-07T08:04:59.472Z,100511.78
2023-01-07T08:05:46.363Z,100511.94
2023-01-07T08:06:34.461Z,100504.03
2023-01-07T08:07:32.093Z,100497.03
2023-01-07T08:08:20.843Z,100503.22
2023-01-07T08:09:07.743Z,100497.56
2023-01-07T08:09:54.642Z,100507.00
2023-01-07T08:10:41.770Z,100501.31
2023-01-07T08:11:28.724Z,100497.06
2023-01-07T08:12:15.661Z,100496.81
2023-01-07T08:13:03.677Z,100504.34
2023-01-07T08:13:50.544Z,100502.03
2023-01-07T08:14:37.581Z,100503.59
2023-01-07T08:15:24.504Z,100497.03
2023-01-07T08:16:11.462Z,100503.12
2023-01-07T08:16:58.393Z,100504.56
2023-01-07T08:17:45.253Z,100505.28
2023-01-07T08:18:32.152Z,100504.81
2023-01-07T08:19:19.013Z,100499.09
2023-01-07T08:20:09.591Z,100502.59
2023-01-07T08:20:56.502Z,100502.50
2023-01-07T08:21:43.403Z,100498.50
2023-01-07T08:22:30.388Z,100504.06
2023-01-07T08:23:17.441Z,100499.19
2023-01-07T08:24:04.885Z,100501.34
2023-01-07T08:24:54.047Z,100496.47
2023-01-07T08:25:41.008Z,100493.31
2023-01-07T08:26:27.892Z,100490.25
2023-01-07T08:27:14.776Z,100495.47
2023-01-07T08:28:02.277Z,100489.16
2023-01-07T08:28:49.123Z,100488.19
2023-01-07T08:29:36.130Z,100490.28
2023-01-07T08:30:23.151Z,100490.41
2023-01-07T08:31:10.103Z,100489.03
2023-01-07T08:31:57.013Z,100490.94
2023-01-07T08:32:43.852Z,100497.34
2023-01-07T08:33:30.723Z,100488.47
2023-01-07T08:34:17.633Z,100494.50
2023-01-07T08:35:05.074Z,100494.00
2023-01-07T08:35:51.956Z,100491.03
2023-01-07T08:36:39.050Z,100496.59
2023-01-07T08:37:25.963Z,100498.16
2023-01-07T08:38:12.865Z,100501.16
2023-01-07T08:38:59.751Z,100493.59
2023-01-07T08:39:46.703Z,100488.25
2023-01-07T08:40:33.881Z,100490.94
2023-01-07T08:41:22.576Z,100487.25
2023-01-07T08:42:09.462Z,100494.03
2023-01-07T08:43:00.405Z,100490.56
2023-01-07T08:43:47.552Z,100493.56
2023-01-07T08:44:34.910Z,100493.63
2023-01-07T08:45:21.758Z,100492.25
2023-01-07T08:46:08.611Z,100484.78
2023-01-07T08:46:55.605Z,100485.50
2023-01-07T08:47:47.738Z,100483.41
2023-01-07T08:48:34.582Z,100487.53
2023-01-07T08:49:21.657Z,100485.03
2023-01-07T08:50:08.880Z,100471.22
2023-01-07T08:50:55.859Z,100475.75
2023-01-07T08:51:42.743Z,100482.38
2023-01-07T08:52:29.602Z,100475.06
2023-01-07T08:53:16.472Z,100479.88
2023-01-07T08:54:03.612Z,100477.50
2023-01-07T08:54:50.690Z,100474.41
2023-01-07T08:55:37.541Z,100476.69
2023-01-07T08:56:24.471Z,100466.41
2023-01-07T08:57:11.313Z,100470.50
2023-01-07T08:57:58.485Z,100469.38
2023-01-07T08:58:45.395Z,100465.56
2023-01-07T08:59:32.255Z,100470.50
2023-01-07T09:00:19.736Z,100469.94
2023-01-07T09:01:07.996Z,100466.88
2023-01-07T09:01:55.203Z,100468.13
2023-01-07T09:02:42.296Z,100468.97
2023-01-07T09:03:29.402Z,100462.62
2023-01-07T09:04:16.342Z,100468.84
2023-01-07T09:05:03.312Z,100466.59
2023-01-07T09:05:50.161Z,100468.00
2023-01-07T09:06:37.069Z,100473.06
2023-01-07T09:07:23.902Z,100463.47
2023-01-07T09:08:10.774Z,100468.00
2023-01-07T09:08:57.871Z,100464.91
2023-01-07T09:09:46.822Z,100468.28
2023-01-07T09:10:33.652Z,100466.47
2023-01-07T09:11:20.489Z,100469.44
2023-01-07T09:12:10.674Z,100470.72
2023-01-07T09:12:57.805Z,100469.28
2023-01-07T09:13:44.624Z,100468.31
2023-01-07T09:14:31.704Z,100466.59
2023-01-07T09:15:18.663Z,100469.72
2023-01-07T09:16:06.106Z,100472.81
2023-01-07T09:16:53.152Z,100463.19
2023-01-07T09:17:40.023Z,100469.25
2023-01-07T09:18:26.888Z,100460.94
2023-01-07T09:19:13.760Z,100462.59
2023-01-07T09:20:03.857Z,100464.16
2023-01-07T09:20:50.771Z,100457.50
2023-01-07T09:21:37.648Z,100461.34
2023-01-07T09:22:24.522Z,100459.75